createdAt,value
2022-11-24T00:00:58.266Z,46.0
2022-11-24T00:02:11.068Z,46.0
2022-11-24T00:03:15.030Z,46.1
2022-11-24T00:04:27.705Z,46.0
2022-11-24T00:05:41.783Z,46.1
2022-11-24T00:06:44.498Z,46.0
2022-11-24T00:07:57.798Z,46.1
2022-11-24T00:09:10.407Z,46.1
2022-11-24T00:10:23.787Z,46.1
2022-11-24T00:11:26.539Z,46.1
2022-11-24T00:12:40.323Z,46.0
2022-11-24T00:13:53.008Z,46.1
2022-11-24T00:14:56.415Z,46.1
2022-11-24T00:16:29.280Z,46.1
2022-11-24T00:17:23.288Z,46.1
2022-11-24T00:18:25.969Z,46.0
2022-11-24T00:19:40.475Z,46.0
2022-11-24T00:20:53.355Z,46.0
2022-11-24T00:21:56.822Z,46.0
2022-11-24T00:23:09.809Z,46.0
2022-11-24T00:24:23.302Z,46.0
2022-11-24T00:25:25.995Z,46.0
2022-11-24T00:26:39.291Z,46.0
2022-11-24T00:27:51.932Z,46.1
2022-11-24T00:28:55.290Z,46.1
2022-11-24T00:30:07.914Z,46.1
2022-11-24T00:31:21.373Z,46.1
2022-11-24T00:32:24.144Z,46.1
2022-11-24T00:33:37.783Z,46.1
2022-11-24T00:34:50.462Z,46.1
2022-11-24T00:36:03.831Z,46.0
2022-11-24T00:37:06.510Z,46.1
2022-11-24T00:38:19.816Z,46.1
2022-11-24T00:39:32.522Z,46.1
2022-11-24T00:40:36.317Z,46.2
2022-11-24T00:41:49.023Z,46.2
2022-11-24T00:43:02.443Z,46.2
2022-11-24T00:44:05.126Z,46.2
2022-11-24T00:45:18.812Z,46.2
2022-11-24T00:46:31.623Z,46.1
2022-11-24T00:47:35.790Z,46.2
2022-11-24T00:48:58.404Z,46.2
2022-11-24T00:50:01.821Z,46.2
2022-11-24T00:51:04.498Z,46.1
2022-11-24T00:52:17.860Z,46.2
2022-11-24T00:53:30.518Z,46.1
2022-11-24T00:54:34.236Z,46.2
2022-11-24T00:55:47.440Z,46.1
2022-11-24T00:57:00.784Z,46.2
2022-11-24T00:58:03.506Z,46.1
2022-11-24T00:59:17.308Z,46.1
2022-11-24T01:00:29.944Z,46.2
2022-11-24T01:01:33.376Z,46.2
2022-11-24T01:02:46.134Z,46.2
2022-11-24T01:03:59.822Z,46.2
2022-11-24T01:05:02.606Z,46.2
2022-11-24T01:06:16.298Z,46.3
2022-11-24T01:07:29.031Z,46.2
2022-11-24T01:08:43.841Z,46.1
2022-11-24T01:09:46.569Z,46.1
2022-11-24T01:11:00.301Z,46.2
2022-11-24T01:12:03.164Z,46.2
2022-11-24T01:13:16.820Z,46.2
2022-11-24T01:14:29.485Z,46.2
2022-11-24T01:15:42.887Z,46.2
2022-11-24T01:16:45.642Z,46.3
2022-11-24T01:17:59.296Z,46.2
2022-11-24T01:19:11.801Z,46.3
2022-11-24T01:20:15.293Z,46.2
2022-11-24T01:21:27.714Z,46.2
2022-11-24T01:22:41.302Z,46.2
2022-11-24T01:23:44.003Z,46.3
2022-11-24T01:24:57.404Z,46.3
2022-11-24T01:26:10.313Z,46.3
2022-11-24T01:27:13.996Z,46.2
2022-11-24T01:28:27.114Z,46.3
2022-11-24T01:29:40.841Z,46.3
2022-11-24T01:30:44.273Z,46.3
2022-11-24T01:31:57.823Z,46.2
2022-11-24T01:33:10.970Z,46.3
2022-11-24T01:34:25.819Z,46.3
2022-11-24T01:35:28.502Z,46.3
2022-11-24T01:36:41.913Z,46.3
2022-11-24T01:37:44.995Z,46.2
2022-11-24T01:38:58.715Z,46.2
2022-11-24T01:40:11.397Z,46.3
2022-11-24T01:41:14.910Z,46.3
2022-11-24T01:42:27.555Z,46.3
2022-11-24T01:43:40.801Z,46.3
2022-11-24T01:44:43.524Z,46.2
2022-11-24T01:45:56.848Z,46.2
2022-11-24T01:47:09.730Z,46.3
2022-11-24T01:48:27.153Z,46.3
2022-11-24T01:49:30.924Z,46.3
2022-11-24T01:50:34.802Z,46.3
2022-11-24T01:51:47.463Z,46.3
2022-11-24T01:53:03.359Z,46.3
2022-11-24T01:54:06.104Z,46.3
2022-11-24T01:55:19.796Z,46.3
2022-11-24T01:56:32.478Z,46.3
2022-11-24T01:57:36.347Z,46.3
2022-11-24T01:58:48.991Z,46.3
2022-11-24T02:00:02.299Z,46.3
2022-11-24T02:01:05.071Z,46.3
2022-11-24T02:02:18.908Z,46.3
2022-11-24T02:03:31.545Z,46.3
2022-11-24T02:04:35.498Z,46.4
2022-11-24T02:05:48.487Z,46.4
2022-11-24T02:07:02.337Z,46.3
2022-11-24T02:08:05.065Z,46.4
2022-11-24T02:09:18.320Z,46.4
2022-11-24T02:10:31.008Z,46.4
2022-11-24T02:11:34.821Z,46.4
2022-11-24T02:12:47.482Z,46.4
2022-11-24T02:14:00.807Z,46.3
2022-11-24T02:15:05.217Z,46.3
2022-11-24T02:16:18.835Z,46.3
2022-11-24T02:17:31.556Z,46.4
2022-11-24T02:18:36.304Z,46.3
2022-11-24T02:19:48.931Z,46.4
2022-11-24T02:21:02.328Z,46.4
2022-11-24T02:22:05.005Z,46.4
2022-11-24T02:23:18.332Z,46.4
2022-11-24T02:24:32.389Z,46.4
2022-11-24T02:25:48.856Z,46.4
2022-11-24T02:26:51.575Z,46.4
2022-11-24T02:27:55.307Z,46.3
2022-11-24T02:29:07.954Z,46.3
2022-11-24T02:30:21.316Z,46.3
2022-11-24T02:31:24.182Z,46.4
2022-11-24T02:32:37.836Z,46.3
2022-11-24T02:33:51.433Z,46.3
2022-11-24T02:34:55.830Z,46.4
2022-11-24T02:36:08.488Z,46.3
2022-11-24T02:37:21.810Z,46.3
2022-11-24T02:38:31.068Z,46.4
2022-11-24T02:39:34.447Z,46.3
2022-11-24T02:40:47.174Z,46.4
2022-11-24T02:42:00.857Z,46.4
2022-11-24T02:43:13.503Z,46.3
2022-11-24T02:44:16.839Z,46.3
2022-11-24T02:45:29.700Z,46.4
2022-11-24T02:46:43.357Z,46.4
2022-11-24T02:47:46.294Z,46.3
2022-11-24T02:49:19.848Z,46.4
2022-11-24T02:50:12.784Z,46.3
2022-11-24T02:51:15.604Z,46.3
2022-11-24T02:52:28.820Z,46.3
2022-11-24T02:53:41.471Z,46.3
2022-11-24T02:54:44.820Z,46.2
2022-11-24T02:55:57.468Z,46.2
2022-11-24T02:57:10.931Z,46.2
2022-11-24T02:58:23.741Z,46.2
2022-11-24T02:59:27.351Z,46.3
2022-11-24T03:00:40.033Z,46.3
2022-11-24T03:01:53.421Z,46.2
2022-11-24T03:02:56.416Z,46.3
2022-11-24T03:04:09.850Z,46.2
2022-11-24T03:05:22.506Z,46.2
2022-11-24T03:06:25.844Z,46.2
2022-11-24T03:07:38.687Z,46.2
2022-11-24T03:08:52.357Z,46.2
2022-11-24T03:09:55.065Z,46.2
2022-11-24T03:11:08.448Z,46.2
2022-11-24T03:12:21.099Z,46.2
2022-11-24T03:13:34.812Z,46.2
2022-11-24T03:14:37.661Z,46.3
2022-11-24T03:15:51.439Z,46.2
2022-11-24T03:17:04.245Z,46.2
2022-11-24T03:18:07.824Z,46.3
2022-11-24T03:19:20.490Z,46.2
2022-11-24T03:20:33.838Z,46.1
2022-11-24T03:21:36.416Z,46.1
2022-11-24T03:22:49.864Z,46.1
2022-11-24T03:24:02.300Z,46.2
2022-11-24T03:25:05.861Z,46.2
2022-11-24T03:26:18.283Z,46.1
2022-11-24T03:27:31.395Z,46.2
2022-11-24T03:28:43.852Z,46.2
2022-11-24T03:29:47.382Z,46.2
2022-11-24T03:31:00.237Z,46.2
2022-11-24T03:32:13.831Z,46.2
2022-11-24T03:33:16.690Z,46.2
2022-11-24T03:34:30.449Z,46.2
2022-11-24T03:35:43.082Z,46.2
2022-11-24T03:36:46.840Z,46.2
2022-11-24T03:37:59.627Z,46.3
2022-11-24T03:39:33.427Z,46.2
2022-11-24T03:40:16.255Z,46.2
2022-11-24T03:41:28.905Z,46.2
2022-11-24T03:42:42.453Z,46.1
2022-11-24T03:44:04.988Z,46.1
2022-11-24T03:45:04.275Z,46.2
2022-11-24T03:46:09.806Z,46.1
2022-11-24T03:47:23.332Z,46.1
2022-11-24T03:49:05.784Z,46.0
2022-11-24T03:51:26.881Z,46.0
2022-11-24T03:52:02.674Z,46.0
2022-11-24T03:53:09.322Z,46.0
2022-11-24T03:54:22.976Z,45.9
2022-11-24T03:55:25.675Z,45.8
2022-11-24T03:56:38.898Z,45.8
2022-11-24T03:57:51.530Z,45.7
2022-11-24T03:58:54.929Z,45.7
2022-11-24T04:00:07.540Z,45.8
2022-11-24T04:01:20.946Z,45.8
2022-11-24T04:02:23.770Z,45.8
2022-11-24T04:03:37.438Z,45.8
2022-11-24T04:04:50.104Z,45.8
2022-11-24T04:05:53.467Z,45.8
2022-11-24T04:07:36.175Z,45.8
2022-11-24T04:08:19.947Z,45.9
2022-11-24T04:09:22.622Z,46.0
2022-11-24T04:10:36.098Z,45.9
2022-11-24T04:11:48.765Z,45.9
2022-11-24T04:12:52.409Z,45.8
2022-11-24T04:14:07.895Z,45.9
2022-11-24T04:15:15.444Z,45.8
2022-11-24T04:16:28.041Z,45.8
2022-11-24T04:17:41.424Z,45.8
2022-11-24T04:18:44.003Z,45.9
2022-11-24T04:19:57.580Z,45.9
2022-11-24T04:21:10.325Z,45.8
2022-11-24T04:22:13.926Z,45.9
2022-11-24T04:23:26.655Z,45.9
2022-11-24T04:24:39.925Z,45.9
2022-11-24T04:25:42.671Z,46.0
2022-11-24T04:26:56.473Z,46.0
2022-11-24T04:28:09.292Z,46.0
2022-11-24T04:29:12.930Z,45.9
2022-11-24T04:30:25.611Z,46.0
2022-11-24T04:31:39.026Z,46.0
2022-11-24T04:32:41.974Z,46.0
2022-11-24T04:33:55.615Z,46.0
2022-11-24T04:35:08.302Z,46.0
2022-11-24T04:36:41.944Z,46.0
2022-11-24T04:37:24.806Z,46.1
2022-11-24T04:39:19.986Z,46.0
2022-11-24T04:39:49.707Z,46.0
2022-11-24T04:40:52.718Z,45.9
2022-11-24T04:42:25.930Z,45.9
2022-11-24T04:43:18.672Z,45.9
2022-11-24T04:44:32.608Z,45.9
2022-11-24T04:45:35.621Z,45.9
2022-11-24T04:46:49.030Z,45.8
2022-11-24T04:47:51.795Z,45.8
2022-11-24T04:49:05.426Z,45.8
2022-11-24T04:50:18.134Z,45.8
2022-11-24T04:51:31.462Z,45.8
2022-11-24T04:52:34.190Z,45.8
2022-11-24T04:53:47.944Z,45.8
2022-11-24T04:55:00.612Z,45.8
2022-11-24T04:56:04.052Z,45.8
2022-11-24T04:57:16.771Z,45.8
2022-11-24T04:58:30.458Z,45.8
2022-11-24T04:59:33.178Z,45.9
2022-11-24T05:00:47.072Z,45.9
2022-11-24T05:01:59.781Z,45.9
2022-11-24T05:03:03.919Z,46.0
2022-11-24T05:04:16.605Z,46.0
2022-11-24T05:05:29.941Z,46.0
2022-11-24T05:06:32.643Z,46.0
2022-11-24T05:07:45.979Z,46.0
2022-11-24T05:08:58.755Z,46.1
2022-11-24T05:10:12.529Z,46.2
2022-11-24T05:11:15.250Z,46.1
2022-11-24T05:12:29.923Z,46.1
2022-11-24T05:13:32.637Z,46.1
2022-11-24T05:14:45.962Z,46.2
2022-11-24T05:15:58.693Z,46.1
2022-11-24T05:17:12.412Z,46.2
2022-11-24T05:18:15.142Z,46.2
2022-11-24T05:19:31.210Z,46.2
2022-11-24T05:20:35.230Z,46.3
2022-11-24T05:21:48.964Z,46.3
2022-11-24T05:23:01.685Z,46.4
2022-11-24T05:24:05.480Z,46.5
2022-11-24T05:25:18.173Z,46.5
2022-11-24T05:26:31.470Z,46.5
2022-11-24T05:27:34.211Z,46.5
2022-11-24T05:28:47.948Z,46.6
2022-11-24T05:30:00.588Z,46.6
2022-11-24T05:31:04.065Z,46.7
2022-11-24T05:32:16.805Z,46.7
2022-11-24T05:33:30.461Z,46.8
2022-11-24T05:34:33.576Z,46.8
2022-11-24T05:35:46.950Z,46.9
2022-11-24T05:36:59.623Z,46.9
2022-11-24T05:38:02.989Z,46.8
2022-11-24T05:39:15.718Z,46.9
2022-11-24T05:40:29.465Z,47.0
2022-11-24T05:41:32.435Z,47.0
2022-11-24T05:42:47.962Z,46.9
2022-11-24T05:43:51.276Z,47.1
2022-11-24T05:45:05.028Z,47.1
2022-11-24T05:46:17.787Z,47.1
2022-11-24T05:47:31.476Z,47.1
2022-11-24T05:48:44.174Z,47.1
2022-11-24T05:49:47.946Z,47.2
2022-11-24T05:50:50.724Z,47.1
2022-11-24T05:52:03.972Z,47.1
2022-11-24T05:53:16.655Z,47.1
2022-11-24T05:54:30.437Z,47.2
2022-11-24T05:55:33.179Z,47.1
2022-11-24T05:56:46.932Z,47.2
2022-11-24T05:57:59.610Z,47.2
2022-11-24T05:59:08.211Z,47.2
2022-11-24T06:00:12.547Z,47.2
2022-11-24T06:01:26.074Z,47.2
2022-11-24T06:02:38.854Z,47.2
2022-11-24T06:03:42.963Z,47.2
2022-11-24T06:04:55.619Z,47.2
2022-11-24T06:06:08.941Z,47.2
2022-11-24T06:07:11.723Z,47.2
2022-11-24T06:08:30.809Z,47.3
2022-11-24T06:09:34.041Z,47.3
2022-11-24T06:10:47.442Z,47.3
2022-11-24T06:11:50.173Z,47.3
2022-11-24T06:13:03.754Z,47.3
2022-11-24T06:14:16.560Z,47.3
2022-11-24T06:15:30.016Z,46.9
2022-11-24T06:16:32.903Z,47.2
2022-11-24T06:17:47.491Z,45.9
2022-11-24T06:18:50.203Z,47.0
2022-11-24T06:20:03.495Z,45.1
2022-11-24T06:21:16.181Z,45.6
2022-11-24T06:22:29.494Z,45.9
2022-11-24T06:23:32.374Z,45.0
2022-11-24T06:24:48.588Z,43.9
2022-11-24T06:25:51.720Z,44.0
2022-11-24T06:27:04.951Z,43.1
2022-11-24T06:28:17.569Z,42.8
2022-11-24T06:29:21.006Z,43.7
2022-11-24T06:30:33.758Z,43.7
2022-11-24T06:31:47.471Z,43.6
2022-11-24T06:32:50.261Z,43.6
2022-11-24T06:34:03.958Z,43.7
2022-11-24T06:35:16.586Z,43.7
2022-11-24T06:36:20.473Z,43.7
2022-11-24T06:37:33.519Z,43.8
2022-11-24T06:38:46.947Z,43.9
2022-11-24T06:39:49.689Z,43.9
2022-11-24T06:41:02.960Z,44.0
2022-11-24T06:42:15.650Z,44.0
2022-11-24T06:43:28.997Z,44.1
2022-11-24T06:44:32.319Z,44.2
2022-11-24T06:45:46.516Z,44.2
2022-11-24T06:46:49.325Z,44.3
2022-11-24T06:48:03.972Z,44.3
2022-11-24T06:49:26.614Z,44.4
2022-11-24T06:50:19.960Z,44.5
2022-11-24T06:51:32.769Z,44.5
2022-11-24T06:52:46.483Z,44.5
2022-11-24T06:53:59.099Z,44.5
2022-11-24T06:55:02.453Z,44.6
2022-11-24T06:56:16.596Z,44.6
2022-11-24T06:57:20.492Z,44.7
2022-11-24T06:58:33.143Z,44.6
2022-11-24T06:59:46.463Z,44.7
2022-11-24T07:00:49.164Z,44.7
2022-11-24T07:02:02.464Z,44.7
2022-11-24T07:03:15.272Z,44.7
2022-11-24T07:04:29.052Z,44.7
2022-11-24T07:05:31.837Z,44.7
2022-11-24T07:06:45.479Z,44.7
2022-11-24T07:07:58.301Z,44.7
2022-11-24T07:09:01.994Z,44.7
2022-11-24T07:10:14.632Z,44.7
2022-11-24T07:11:27.985Z,44.7
2022-11-24T07:12:30.670Z,44.7
2022-11-24T07:13:43.967Z,44.8
2022-11-24T07:14:56.658Z,44.7
2022-11-24T07:16:00.043Z,44.8
2022-11-24T07:17:12.755Z,44.7
2022-11-24T07:18:26.472Z,44.7
2022-11-24T07:19:29.187Z,44.7
2022-11-24T07:20:42.476Z,44.7
2022-11-24T07:21:55.323Z,44.7
2022-11-24T07:23:08.959Z,44.7
2022-11-24T07:24:11.687Z,44.7
2022-11-24T07:25:25.001Z,44.7
2022-11-24T07:26:37.712Z,44.7
2022-11-24T07:27:41.686Z,44.7
2022-11-24T07:28:54.410Z,44.7
2022-11-24T07:30:08.016Z,44.7
2022-11-24T07:31:20.806Z,44.7
2022-11-24T07:32:24.488Z,44.8
2022-11-24T07:33:37.159Z,44.7
2022-11-24T07:34:40.458Z,44.7
2022-11-24T07:35:53.069Z,44.6
2022-11-24T07:37:06.482Z,44.7
2022-11-24T07:38:09.166Z,44.7
2022-11-24T07:39:22.471Z,44.6
2022-11-24T07:40:35.146Z,44.6
2022-11-24T07:41:48.509Z,44.6
2022-11-24T07:42:51.229Z,44.6
2022-11-24T07:44:04.648Z,44.6
2022-11-24T07:45:17.355Z,44.6
2022-11-24T07:46:21.082Z,44.6
2022-11-24T07:47:33.837Z,44.7
2022-11-24T07:48:47.480Z,44.7
2022-11-24T07:49:50.078Z,44.7
2022-11-24T07:51:03.464Z,44.4
2022-11-24T07:52:15.977Z,44.2
2022-11-24T07:53:19.485Z,44.0
2022-11-24T07:54:32.256Z,43.8
2022-11-24T07:55:45.504Z,43.6
2022-11-24T07:56:48.020Z,43.5
2022-11-24T07:58:01.482Z,43.3
2022-11-24T07:59:13.911Z,43.1
2022-11-24T08:00:27.517Z,42.9
2022-11-24T08:01:30.091Z,42.7
2022-11-24T08:02:43.579Z,42.6
2022-11-24T08:03:56.133Z,42.5
2022-11-24T08:04:59.493Z,42.3
2022-11-24T08:06:28.665Z,42.1
2022-11-24T08:07:26.040Z,42.0
2022-11-24T08:08:28.608Z,41.9
2022-11-24T08:09:41.988Z,41.8
2022-11-24T08:10:55.416Z,41.7
2022-11-24T08:11:58.524Z,41.6
2022-11-24T08:13:10.903Z,41.5
2022-11-24T08:14:24.036Z,41.4
2022-11-24T08:15:26.468Z,41.4
2022-11-24T08:16:39.528Z,41.3
2022-11-24T08:17:51.975Z,41.3
2022-11-24T08:19:04.991Z,41.2
2022-11-24T08:20:07.371Z,41.2
2022-11-24T08:21:20.514Z,41.1
2022-11-24T08:22:32.862Z,41.1
2022-11-24T08:23:35.973Z,41.0
2022-11-24T08:24:48.262Z,41.1
2022-11-24T08:26:01.525Z,41.1
2022-11-24T08:27:13.847Z,41.0
2022-11-24T08:28:16.980Z,41.0
2022-11-24T08:29:29.319Z,41.1
2022-11-24T08:30:42.503Z,41.0
2022-11-24T08:31:44.974Z,41.0
2022-11-24T08:32:57.988Z,40.9
2022-11-24T08:34:10.249Z,40.8
2022-11-24T08:35:23.525Z,40.8
2022-11-24T08:36:25.918Z,40.8
2022-11-24T08:37:39.541Z,40.7
2022-11-24T08:38:51.810Z,40.8
2022-11-24T08:39:55.018Z,40.8
2022-11-24T08:41:07.301Z,40.9
2022-11-24T08:42:20.515Z,40.8
2022-11-24T08:43:22.966Z,40.7
2022-11-24T08:44:36.551Z,40.7
2022-11-24T08:45:49.404Z,40.7
2022-11-24T08:46:52.529Z,40.7
2022-11-24T08:48:04.791Z,40.7
2022-11-24T08:49:18.026Z,40.7
2022-11-24T08:50:20.456Z,40.6
2022-11-24T08:51:33.516Z,40.6
2022-11-24T08:52:45.776Z,40.6
2022-11-24T08:53:59.030Z,40.6
2022-11-24T08:55:01.370Z,40.6
2022-11-24T08:56:15.018Z,40.6
2022-11-24T08:57:27.315Z,40.5
2022-11-24T08:58:30.542Z,40.4
2022-11-24T08:59:42.855Z,40.5
2022-11-24T09:00:56.028Z,40.5
2022-11-24T09:01:58.550Z,40.4
2022-11-24T09:03:11.535Z,40.4
2022-11-24T09:04:23.812Z,40.4
2022-11-24T09:05:51.701Z,40.5
2022-11-24T09:06:44.973Z,40.4
2022-11-24T09:07:47.473Z,40.4
2022-11-24T09:09:00.503Z,40.4
2022-11-24T09:10:12.742Z,40.4
2022-11-24T09:11:26.022Z,40.4
2022-11-24T09:12:28.449Z,40.4
2022-11-24T09:13:41.530Z,40.4
2022-11-24T09:14:53.828Z,40.3
2022-11-24T09:15:57.037Z,40.3
2022-11-24T09:17:09.305Z,40.2
2022-11-24T09:18:25.230Z,40.2
2022-11-24T09:19:31.635Z,40.2
2022-11-24T09:20:45.031Z,40.2
2022-11-24T09:21:47.389Z,40.2
2022-11-24T09:23:00.537Z,40.2
2022-11-24T09:24:12.813Z,40.1
2022-11-24T09:25:16.085Z,40.2
2022-11-24T09:26:28.295Z,40.1
2022-11-24T09:27:41.554Z,40.1
2022-11-24T09:28:43.878Z,40.1
2022-11-24T09:29:57.017Z,40.1
2022-11-24T09:31:09.312Z,40.1
2022-11-24T09:32:12.566Z,40.1
2022-11-24T09:33:24.939Z,40.1
2022-11-24T09:34:38.018Z,40.1
2022-11-24T09:35:40.385Z,40.0
2022-11-24T09:36:53.532Z,40.0
2022-11-24T09:38:05.738Z,40.0
2022-11-24T09:39:18.539Z,40.0
2022-11-24T09:40:20.952Z,40.0
2022-11-24T09:41:34.095Z,40.0
2022-11-24T09:42:52.083Z,40.0
2022-11-24T09:43:56.545Z,40.0
2022-11-24T09:44:58.911Z,40.0
2022-11-24T09:46:12.092Z,39.9
2022-11-24T09:47:24.423Z,39.9
2022-11-24T09:48:37.530Z,39.9
2022-11-24T09:49:39.891Z,39.9
2022-11-24T09:50:53.028Z,39.9
2022-11-24T09:52:05.218Z,39.8
2022-11-24T09:53:08.499Z,39.8
2022-11-24T09:54:20.775Z,39.8
2022-11-24T09:55:37.037Z,39.8
2022-11-24T09:56:39.316Z,39.8
2022-11-24T09:57:53.042Z,39.7
2022-11-24T09:59:05.290Z,39.7
2022-11-24T10:00:08.548Z,39.6
2022-11-24T10:01:20.794Z,39.6
2022-11-24T10:02:34.090Z,39.6
2022-11-24T10:03:36.561Z,39.6
2022-11-24T10:04:49.583Z,39.7
2022-11-24T10:06:01.868Z,39.7
2022-11-24T10:07:05.095Z,39.6
2022-11-24T10:08:17.328Z,39.6
2022-11-24T10:09:30.518Z,39.6
2022-11-24T10:10:42.745Z,39.6
2022-11-24T10:11:46.039Z,39.6
2022-11-24T10:12:58.276Z,39.5
2022-11-24T10:14:11.546Z,39.5
2022-11-24T10:15:13.964Z,39.5
2022-11-24T10:16:27.043Z,39.6
2022-11-24T10:17:39.220Z,39.5
2022-11-24T10:18:42.522Z,39.6
2022-11-24T10:19:54.756Z,39.6
2022-11-24T10:21:07.551Z,39.5
2022-11-24T10:22:19.776Z,39.6
2022-11-24T10:23:23.038Z,39.5
2022-11-24T10:24:35.248Z,39.5
2022-11-24T10:25:48.060Z,39.6
2022-11-24T10:26:50.337Z,39.6
2022-11-24T10:28:03.564Z,39.5
2022-11-24T10:29:15.747Z,39.6
2022-11-24T10:30:29.150Z,39.7
2022-11-24T10:31:31.394Z,39.6
2022-11-24T10:32:44.553Z,39.5
2022-11-24T10:33:56.719Z,39.4
2022-11-24T10:35:00.351Z,39.4
2022-11-24T10:36:12.889Z,39.3
2022-11-24T10:37:26.079Z,39.3
2022-11-24T10:38:38.277Z,39.2
2022-11-24T10:39:41.538Z,39.2
2022-11-24T10:40:58.121Z,39.1
2022-11-24T10:42:01.514Z,39.0
2022-11-24T10:43:13.732Z,38.9
2022-11-24T10:44:28.030Z,38.9
2022-11-24T10:45:30.274Z,38.8
2022-11-24T10:46:44.639Z,38.7
2022-11-24T10:47:56.917Z,38.7
2022-11-24T10:49:00.061Z,38.7
2022-11-24T10:50:12.246Z,38.6
2022-11-24T10:51:25.057Z,38.5
2022-11-24T10:52:27.278Z,38.4
2022-11-24T10:53:40.046Z,38.3
2022-11-24T10:54:52.208Z,38.3
2022-11-24T10:56:05.066Z,38.3
2022-11-24T10:57:07.292Z,38.1
2022-11-24T10:58:20.027Z,38.1
2022-11-24T10:59:32.656Z,38.0
2022-11-24T11:00:36.057Z,38.0
2022-11-24T11:01:48.219Z,38.0
2022-11-24T11:03:01.081Z,37.9
2022-11-24T11:04:13.360Z,37.9
2022-11-24T11:05:16.556Z,37.8
2022-11-24T11:06:28.689Z,37.7
2022-11-24T11:07:41.649Z,37.7
2022-11-24T11:08:43.888Z,37.7
2022-11-24T11:09:56.569Z,37.6
2022-11-24T11:11:08.684Z,37.5
2022-11-24T11:12:42.703Z,37.5
2022-11-24T11:13:26.241Z,37.5
2022-11-24T11:14:38.348Z,37.5
2022-11-24T11:15:51.118Z,37.4
2022-11-24T11:16:53.472Z,37.3
2022-11-24T11:18:06.547Z,37.3
2022-11-24T11:19:47.270Z,37.2
2022-11-24T11:20:22.072Z,37.3
2022-11-24T11:21:34.772Z,37.1
2022-11-24T11:22:47.553Z,37.3
2022-11-24T11:23:49.804Z,37.1
2022-11-24T11:25:02.545Z,37.0
2022-11-24T11:26:14.598Z,37.0
2022-11-24T11:27:27.584Z,37.0
2022-11-24T11:28:29.739Z,36.9
2022-11-24T11:31:19.852Z,36.8
2022-11-24T11:34:25.009Z,36.6
2022-11-24T11:35:28.053Z,36.6
2022-11-24T11:36:40.108Z,36.5
2022-11-24T11:37:53.111Z,36.5
2022-11-24T11:39:05.181Z,36.5
2022-11-24T11:40:08.586Z,36.4
2022-11-24T11:41:20.622Z,36.4
2022-11-24T11:43:00.886Z,36.4
2022-11-24T11:43:34.865Z,36.4
2022-11-24T11:44:46.842Z,36.3
2022-11-24T11:45:59.752Z,36.3
2022-11-24T11:47:12.184Z,36.3
2022-11-24T11:48:15.078Z,36.3
2022-11-24T11:49:27.086Z,36.2
2022-11-24T11:51:06.691Z,36.2
2022-11-24T11:51:44.529Z,36.1
2022-11-24T11:52:56.707Z,36.1
2022-11-24T11:54:09.604Z,36.1
2022-11-24T11:55:11.816Z,36.1
2022-11-24T11:56:26.074Z,36.0
2022-11-24T11:57:38.506Z,36.0
2022-11-24T12:00:03.509Z,35.9
2022-11-24T12:01:05.610Z,35.9
2022-11-24T12:02:18.374Z,35.9
2022-11-24T12:03:20.739Z,35.9
2022-11-24T12:04:33.972Z,35.8
2022-11-24T12:05:46.231Z,35.8
2022-11-24T12:06:49.300Z,35.8
2022-11-24T12:09:28.351Z,35.9
2022-11-24T12:10:20.685Z,35.8
2022-11-24T12:11:33.455Z,35.8
2022-11-24T12:12:45.574Z,35.7
2022-11-24T12:13:48.418Z,35.8
2022-11-24T12:15:03.453Z,35.7
2022-11-24T12:16:09.024Z,35.7
2022-11-24T12:17:21.159Z,35.7
2022-11-24T12:18:56.665Z,35.7
2022-11-24T12:19:39.909Z,35.7
2022-11-24T12:20:51.977Z,35.7
2022-11-24T12:22:04.877Z,35.6
2022-11-24T12:23:06.983Z,35.6
2022-11-24T12:24:19.924Z,35.5
2022-11-24T12:25:32.057Z,35.7
2022-11-24T12:26:34.875Z,35.7
2022-11-24T12:27:46.890Z,35.6
2022-11-24T12:28:59.874Z,35.8
2022-11-24T12:30:11.994Z,35.7
2022-11-24T12:31:14.944Z,35.7
2022-11-24T12:32:27.049Z,35.6
2022-11-24T12:33:39.900Z,35.6
2022-11-24T12:34:42.092Z,35.7
2022-11-24T12:35:54.863Z,35.6
2022-11-24T12:37:06.909Z,35.8
2022-11-24T12:38:19.883Z,35.8
2022-11-24T12:39:21.986Z,35.7
2022-11-24T12:40:34.890Z,35.8
2022-11-24T12:41:46.898Z,35.7
2022-11-24T12:42:49.920Z,35.8
2022-11-24T12:44:01.947Z,35.8
2022-11-24T12:45:14.913Z,35.8
2022-11-24T12:46:27.117Z,35.8
2022-11-24T12:47:30.383Z,35.8
2022-11-24T12:48:42.395Z,35.8
2022-11-24T12:49:55.406Z,35.8
2022-11-24T12:50:57.632Z,35.8
2022-11-24T12:52:10.377Z,35.8
2022-11-24T12:53:22.378Z,35.8
2022-11-24T12:54:35.378Z,35.9
2022-11-24T12:55:37.560Z,35.8
2022-11-24T12:56:50.415Z,35.8
2022-11-24T12:59:19.442Z,35.8
2022-11-24T13:00:21.569Z,35.8
2022-11-24T13:01:34.547Z,35.8
2022-11-24T13:02:36.907Z,35.8
2022-11-24T13:03:49.900Z,35.8
2022-11-24T13:05:01.834Z,35.7
2022-11-24T13:06:04.898Z,35.7
2022-11-24T13:07:16.939Z,35.7
2022-11-24T13:08:29.896Z,35.7
2022-11-24T13:09:32.013Z,35.7
2022-11-24T13:10:56.365Z,35.6
2022-11-24T13:12:03.501Z,35.6
2022-11-24T13:13:06.912Z,35.6
2022-11-24T13:14:18.881Z,35.6
2022-11-24T13:15:44.665Z,35.6
2022-11-24T13:16:48.544Z,35.6
2022-11-24T13:18:06.842Z,35.5
2022-11-24T13:18:54.544Z,35.4
2022-11-24T13:20:06.583Z,35.5
2022-11-24T13:21:09.403Z,35.3
2022-11-24T13:22:21.347Z,35.3
2022-11-24T13:23:34.766Z,35.3
2022-11-24T13:24:46.670Z,35.3
2022-11-24T13:25:49.916Z,35.2
2022-11-24T13:27:01.857Z,35.3
2022-11-24T13:28:17.502Z,35.2
2022-11-24T13:29:25.295Z,35.3
2022-11-24T13:30:28.429Z,35.2
2022-11-24T13:31:59.943Z,35.3
2022-11-24T13:32:52.927Z,35.2
2022-11-24T13:33:54.963Z,35.2
2022-11-24T13:35:07.914Z,34.9
2022-11-24T13:36:19.804Z,34.4
2022-11-24T13:37:35.729Z,34.0
2022-11-24T13:38:38.041Z,33.8
2022-11-24T13:39:50.945Z,33.5
2022-11-24T13:41:13.506Z,33.3
2022-11-24T13:42:41.835Z,33.0
2022-11-24T13:43:16.756Z,32.9
2022-11-24T13:44:28.619Z,32.8
2022-11-24T13:45:31.945Z,32.6
2022-11-24T13:46:43.991Z,32.4
2022-11-24T13:47:56.915Z,32.3
2022-11-24T13:49:08.834Z,32.2
2022-11-24T13:50:11.932Z,32.0
2022-11-24T13:51:23.980Z,32.0
2022-11-24T13:52:36.937Z,32.0
2022-11-24T13:53:39.018Z,31.9
2022-11-24T13:54:51.928Z,32.0
2022-11-24T13:56:03.834Z,31.9
2022-11-24T13:57:16.480Z,31.9
2022-11-24T13:58:18.543Z,31.8
2022-11-24T13:59:31.406Z,31.8
2022-11-24T14:00:43.311Z,32.0
2022-11-24T14:01:55.973Z,32.1
2022-11-24T14:02:58.209Z,32.1
2022-11-24T14:04:31.579Z,32.1
2022-11-24T14:05:24.781Z,32.2
2022-11-24T14:07:53.362Z,32.2
2022-11-24T14:08:45.695Z,32.2
2022-11-24T14:10:01.789Z,32.3
2022-11-24T14:11:13.687Z,32.2
2022-11-24T14:12:16.937Z,32.3
2022-11-24T14:13:28.935Z,32.4
2022-11-24T14:14:41.791Z,32.4
2022-11-24T14:15:43.857Z,32.4
2022-11-24T14:16:56.802Z,32.5
2022-11-24T14:18:08.685Z,32.5
2022-11-24T14:19:21.245Z,32.5
2022-11-24T14:20:23.375Z,32.6
2022-11-24T14:21:36.381Z,32.6
2022-11-24T14:22:48.270Z,32.6
2022-11-24T14:24:01.258Z,32.6
2022-11-24T14:25:03.338Z,32.7
2022-11-24T14:26:16.763Z,32.6
2022-11-24T14:27:28.693Z,32.7
2022-11-24T14:28:31.823Z,32.8
2022-11-24T14:29:43.790Z,32.8
2022-11-24T14:30:56.273Z,32.9
2022-11-24T14:32:08.437Z,32.8
2022-11-24T14:33:11.281Z,32.8
2022-11-24T14:34:23.266Z,32.9
2022-11-24T14:35:35.832Z,32.9
2022-11-24T14:36:38.160Z,33.0
2022-11-24T14:37:50.776Z,33.0
2022-11-24T14:39:02.615Z,33.1
2022-11-24T14:40:16.777Z,33.3
2022-11-24T14:41:18.904Z,33.4
2022-11-24T14:42:31.750Z,33.6
2022-11-24T14:43:43.716Z,33.7
2022-11-24T14:44:46.753Z,33.9
2022-11-24T14:45:58.738Z,34.1
2022-11-24T14:47:11.779Z,34.2
2022-11-24T14:48:23.767Z,34.3
2022-11-24T14:49:26.793Z,34.5
2022-11-24T14:50:38.779Z,34.6
2022-11-24T14:51:51.805Z,34.7
2022-11-24T14:52:53.939Z,34.8
2022-11-24T14:54:06.808Z,34.9
2022-11-24T14:55:23.164Z,35.0
2022-11-24T14:56:26.258Z,35.1
2022-11-24T14:57:38.293Z,35.1
2022-11-24T14:58:51.319Z,35.2
2022-11-24T14:59:53.486Z,35.3
2022-11-24T15:01:06.352Z,35.4
2022-11-24T15:02:18.511Z,35.4
2022-11-24T15:03:31.309Z,35.5
2022-11-24T15:05:02.565Z,35.5
2022-11-24T15:05:46.775Z,35.6
2022-11-24T15:06:58.908Z,35.6
2022-11-24T15:08:01.812Z,35.7
2022-11-24T15:09:13.866Z,35.7
2022-11-24T15:10:32.168Z,35.8
2022-11-24T15:11:35.902Z,35.9
2022-11-24T15:12:49.304Z,35.9
2022-11-24T15:13:51.480Z,35.9
2022-11-24T15:15:04.277Z,36.0
2022-11-24T15:16:16.439Z,36.0
2022-11-24T15:17:29.294Z,36.1
2022-11-24T15:18:31.509Z,36.1
2022-11-24T15:19:44.792Z,36.2
2022-11-24T15:20:56.852Z,36.2
2022-11-24T15:21:59.802Z,36.3
2022-11-24T15:23:11.919Z,36.4
2022-11-24T15:24:24.778Z,36.3
2022-11-24T15:25:36.838Z,36.4
2022-11-24T15:26:42.115Z,36.4
2022-11-24T15:27:54.592Z,36.5
2022-11-24T15:29:07.302Z,36.5
2022-11-24T15:30:09.444Z,36.6
2022-11-24T15:31:22.371Z,36.6
2022-11-24T15:32:34.475Z,36.6
2022-11-24T15:33:37.313Z,36.7
2022-11-24T15:34:49.372Z,36.7
2022-11-24T15:36:02.289Z,36.7
2022-11-24T15:37:14.366Z,36.8
2022-11-24T15:38:17.357Z,36.8
2022-11-24T15:39:29.439Z,36.8